Cantonment, FL (32533)

5:49 PM CDT on August 24, 2016 (GMT -0500)
Cottage Hill | | Change Station

Elev 138 ft 30.64 °N, 87.32 °W | Updated 12 minutes ago

Light Rain
Light Rain
78.4 °F
Feels Like 82 °F
N
0.0
Wind Variable Wind from SSW

Today
High -- | Low -- °F
--% Chance of Precip.
Yesterday
High -- | Low -- °F
Precip. -- in
Pressure 30.12 in
Visibility 10.0 miles
Clouds Few 800 ft
Scattered Clouds 2000 ft
Mostly Cloudy 10000 ft
Heat Index 82 °F
Dew Point 77 °F
Humidity 95%
Rainfall 0.00 in
Snow Depth Not available.
6:21 AM 7:21 PM
Waning Gibbous, 52% visible
SPECI KPNS 242226Z 04004KT 10SM -RA FEW008 SCT020 BKN100 27/25 A3012 RMK AO2 RAB05 P0001 T02670250
Pressure 30.12 in
Visibility 10.0 miles
Clouds Few 800 ft
Scattered Clouds 2000 ft
Mostly Cloudy 10000 ft
Heat Index 82 °F
Dew Point 77 °F
Humidity 95%
Rainfall 0.00 in
Snow Depth Not available.
6:21 AM 7:21 PM
Waning Gibbous, 52% visible
SPECI KPNS 242226Z 04004KT 10SM -RA FEW008 SCT020 BKN100 27/25 A3012 RMK AO2 RAB05 P0001 T02670250

10-Day Weather Forecast

Almanac

Astronomy

Aug. 24, 2016 Rise Set
Actual Time
Civil Twilight
Nautical Twilight
Astronomical Twilight
Moon
Length of Visible Light
Length of Day
Tomorrow will be .
, % of the Moon is Illuminated

Today's Extremes

State Highs State Lows

Community

WunderPhotos

Upload Photos

1,934,728 photos uploaded!

WunderBlog® & News

Nearby

Air Quality

  Air Quality AQ Index Pollutant
Not available.

Snow Depth

Station Depth Elevation

Earthquake Activity

City Distance Mag. Time & Date
Minimum magnitude displayed is 2.5.

Coastal Water Temperatures

Place Temperature

Stations

Nearby Weather Stations

Station Location Temp. Windchill Dew Point Humidity Wind Precip. Elev Updated Type
                   

Watches & Warnings

There are currently no watches in effect.